sensor_id;sensor_type;location;lat;lon;timestamp;P1;durP1;ratioP1;P2;durP2;ratioP2
53253;SDS011;39148;53.332;6.922;2022-07-01T00:01:22;4.95;;;0.85;;
53253;SDS011;39148;53.332;6.922;2022-07-01T00:03:48;5.72;;;1.10;;
53253;SDS011;39148;53.332;6.922;2022-07-01T00:06:14;5.65;;;1.10;;
53253;SDS011;39148;53.332;6.922;2022-07-01T00:08:43;6.65;;;1.20;;
53253;SDS011;39148;53.332;6.922;2022-07-01T00:11:10;8.00;;;1.65;;
53253;SDS011;39148;53.332;6.922;2022-07-01T00:13:36;4.97;;;0.82;;
53253;SDS011;39148;53.332;6.922;2022-07-01T00:16:02;5.47;;;0.95;;
53253;SDS011;39148;53.332;6.922;2022-07-01T00:18:28;4.28;;;0.80;;
53253;SDS011;39148;53.332;6.922;2022-07-01T00:20:54;4.07;;;0.80;;
53253;SDS011;39148;53.332;6.922;2022-07-01T00:23:20;4.53;;;0.73;;
53253;SDS011;39148;53.332;6.922;2022-07-01T00:25:46;3.85;;;0.70;;
53253;SDS011;39148;53.332;6.922;2022-07-01T00:28:12;4.05;;;0.90;;
53253;SDS011;39148;53.332;6.922;2022-07-01T00:30:37;4.78;;;0.90;;
53253;SDS011;39148;53.332;6.922;2022-07-01T00:33:03;2.38;;;0.52;;
53253;SDS011;39148;53.332;6.922;2022-07-01T00:35:29;3.40;;;0.80;;
53253;SDS011;39148;53.332;6.922;2022-07-01T00:37:55;4.50;;;0.93;;
53253;SDS011;39148;53.332;6.922;2022-07-01T00:40:22;4.45;;;0.70;;
53253;SDS011;39148;53.332;6.922;2022-07-01T00:42:48;4.60;;;0.70;;
53253;SDS011;39148;53.332;6.922;2022-07-01T00:45:14;4.10;;;0.90;;
53253;SDS011;39148;53.332;6.922;2022-07-01T00:47:40;4.28;;;0.95;;
53253;SDS011;39148;53.332;6.922;2022-07-01T00:50:07;2.58;;;0.70;;
53253;SDS011;39148;53.332;6.922;2022-07-01T00:52:35;4.07;;;0.75;;
53253;SDS011;39148;53.332;6.922;2022-07-01T00:55:04;2.72;;;0.50;;
53253;SDS011;39148;53.332;6.922;2022-07-01T00:57:32;3.97;;;0.70;;
53253;SDS011;39148;53.332;6.922;2022-07-01T01:00:01;2.78;;;0.50;;
53253;SDS011;39148;53.332;6.922;2022-07-01T01:02:38;3.03;;;0.57;;
53253;SDS011;39148;53.332;6.922;2022-07-01T01:05:05;3.60;;;0.50;;
53253;SDS011;39148;53.332;6.922;2022-07-01T01:07:31;3.20;;;0.40;;
53253;SDS011;39148;53.332;6.922;2022-07-01T01:09:58;3.20;;;0.60;;
53253;SDS011;39148;53.332;6.922;2022-07-01T01:12:25;3.63;;;0.45;;
53253;SDS011;39148;53.332;6.922;2022-07-01T01:14:51;3.83;;;0.93;;
53253;SDS011;39148;53.332;6.922;2022-07-01T01:17:18;3.17;;;0.50;;
53253;SDS011;39148;53.332;6.922;2022-07-01T01:19:44;3.20;;;0.60;;
53253;SDS011;39148;53.332;6.922;2022-07-01T01:22:11;3.80;;;0.55;;
53253;SDS011;39148;53.332;6.922;2022-07-01T01:24:40;1.85;;;0.40;;
53253;SDS011;39148;53.332;6.922;2022-07-01T01:27:06;2.25;;;0.47;;
53253;SDS011;39148;53.332;6.922;2022-07-01T01:29:34;2.60;;;0.50;;
53253;SDS011;39148;53.332;6.922;2022-07-01T01:32:01;4.47;;;0.70;;
53253;SDS011;39148;53.332;6.922;2022-07-01T01:34:27;1.75;;;0.40;;
53253;SDS011;39148;53.332;6.922;2022-07-01T01:36:53;1.80;;;0.30;;
53253;SDS011;39148;53.332;6.922;2022-07-01T01:39:19;1.85;;;0.57;;
53253;SDS011;39148;53.332;6.922;2022-07-01T01:41:46;3.72;;;0.40;;
53253;SDS011;39148;53.332;6.922;2022-07-01T01:44:12;2.95;;;0.50;;
53253;SDS011;39148;53.332;6.922;2022-07-01T01:46:38;3.20;;;0.50;;
53253;SDS011;39148;53.332;6.922;2022-07-01T01:49:04;1.63;;;0.43;;
53253;SDS011;39148;53.332;6.922;2022-07-01T01:51:31;2.50;;;0.40;;
53253;SDS011;39148;53.332;6.922;2022-07-01T01:53:57;2.05;;;0.40;;
53253;SDS011;39148;53.332;6.922;2022-07-01T01:56:23;1.77;;;0.40;;
53253;SDS011;39148;53.332;6.922;2022-07-01T01:58:49;2.42;;;0.45;;
53253;SDS011;39148;53.332;6.922;2022-07-01T02:01:15;2.58;;;0.40;;
53253;SDS011;39148;53.332;6.922;2022-07-01T02:03:42;1.52;;;0.30;;
53253;SDS011;39148;53.332;6.922;2022-07-01T02:06:09;2.33;;;0.60;;
53253;SDS011;39148;53.332;6.922;2022-07-01T02:08:36;2.13;;;0.32;;
53253;SDS011;39148;53.332;6.922;2022-07-01T02:11:02;1.15;;;0.30;;
53253;SDS011;39148;53.332;6.922;2022-07-01T02:13:28;2.20;;;0.30;;
53253;SDS011;39148;53.332;6.922;2022-07-01T02:15:54;3.03;;;0.50;;
53253;SDS011;39148;53.332;6.922;2022-07-01T02:18:21;1.85;;;0.45;;
53253;SDS011;39148;53.332;6.922;2022-07-01T02:20:47;2.95;;;0.40;;
53253;SDS011;39148;53.332;6.922;2022-07-01T02:23:13;1.02;;;0.22;;
53253;SDS011;39148;53.332;6.922;2022-07-01T02:25:39;3.03;;;0.30;;
53253;SDS011;39148;53.332;6.922;2022-07-01T02:28:05;2.75;;;0.63;;
53253;SDS011;39148;53.332;6.922;2022-07-01T02:30:33;1.17;;;0.32;;
53253;SDS011;39148;53.332;6.922;2022-07-01T02:33:02;0.85;;;0.40;;
53253;SDS011;39148;53.332;6.922;2022-07-01T02:35:29;1.75;;;0.43;;
53253;SDS011;39148;53.332;6.922;2022-07-01T02:37:54;1.30;;;0.30;;
53253;SDS011;39148;53.332;6.922;2022-07-01T02:40:20;1.17;;;0.30;;
53253;SDS011;39148;53.332;6.922;2022-07-01T02:42:46;1.17;;;0.30;;
53253;SDS011;39148;53.332;6.922;2022-07-01T02:45:11;2.55;;;0.30;;
53253;SDS011;39148;53.332;6.922;2022-07-01T02:47:40;1.63;;;0.40;;
53253;SDS011;39148;53.332;6.922;2022-07-01T02:50:07;0.40;;;0.20;;
53253;SDS011;39148;53.332;6.922;2022-07-01T02:52:35;1.25;;;0.30;;
53253;SDS011;39148;53.332;6.922;2022-07-01T02:55:01;2.00;;;0.40;;
53253;SDS011;39148;53.332;6.922;2022-07-01T02:57:28;1.67;;;0.32;;
53253;SDS011;39148;53.332;6.922;2022-07-01T02:59:55;0.65;;;0.22;;
53253;SDS011;39148;53.332;6.922;2022-07-01T03:02:20;2.30;;;0.30;;
53253;SDS011;39148;53.332;6.922;2022-07-01T03:04:47;0.90;;;0.20;;
53253;SDS011;39148;53.332;6.922;2022-07-01T03:07:14;2.05;;;0.40;;
53253;SDS011;39148;53.332;6.922;2022-07-01T03:09:40;1.27;;;0.30;;
53253;SDS011;39148;53.332;6.922;2022-07-01T03:12:07;1.17;;;0.20;;
53253;SDS011;39148;53.332;6.922;2022-07-01T03:14:53;1.85;;;0.30;;
53253;SDS011;39148;53.332;6.922;2022-07-01T03:17:20;1.33;;;0.20;;
53253;SDS011;39148;53.332;6.922;2022-07-01T03:19:46;1.13;;;0.30;;
53253;SDS011;39148;53.332;6.922;2022-07-01T03:22:12;1.02;;;0.22;;
53253;SDS011;39148;53.332;6.922;2022-07-01T03:24:38;1.02;;;0.30;;
53253;SDS011;39148;53.332;6.922;2022-07-01T03:27:04;3.00;;;0.50;;
53253;SDS011;39148;53.332;6.922;2022-07-01T03:29:30;2.28;;;0.35;;
53253;SDS011;39148;53.332;6.922;2022-07-01T03:31:55;1.38;;;0.20;;
53253;SDS011;39148;53.332;6.922;2022-07-01T03:34:21;1.15;;;0.28;;
53253;SDS011;39148;53.332;6.922;2022-07-01T03:36:47;0.55;;;0.20;;
53253;SDS011;39148;53.332;6.922;2022-07-01T03:39:13;1.27;;;0.25;;
53253;SDS011;39148;53.332;6.922;2022-07-01T03:41:39;1.80;;;0.30;;
53253;SDS011;39148;53.332;6.922;2022-07-01T03:44:04;1.55;;;0.55;;
53253;SDS011;39148;53.332;6.922;2022-07-01T03:46:33;3.63;;;0.60;;
53253;SDS011;39148;53.332;6.922;2022-07-01T03:49:00;1.63;;;0.43;;
53253;SDS011;39148;53.332;6.922;2022-07-01T03:51:27;2.05;;;0.40;;
53253;SDS011;39148;53.332;6.922;2022-07-01T03:53:52;1.67;;;0.40;;
53253;SDS011;39148;53.332;6.922;2022-07-01T03:56:37;0.55;;;0.30;;
53253;SDS011;39148;53.332;6.922;2022-07-01T03:59:02;0.85;;;0.30;;
53253;SDS011;39148;53.332;6.922;2022-07-01T04:01:28;1.20;;;0.30;;
53253;SDS011;39148;53.332;6.922;2022-07-01T04:03:54;1.10;;;0.38;;
53253;SDS011;39148;53.332;6.922;2022-07-01T04:06:19;1.05;;;0.20;;
53253;SDS011;39148;53.332;6.922;2022-07-01T04:08:46;2.10;;;0.30;;
53253;SDS011;39148;53.332;6.922;2022-07-01T04:11:13;1.02;;;0.40;;
53253;SDS011;39148;53.332;6.922;2022-07-01T04:13:40;1.23;;;0.40;;
53253;SDS011;39148;53.332;6.922;2022-07-01T04:16:06;1.45;;;0.45;;
53253;SDS011;39148;53.332;6.922;2022-07-01T04:18:32;1.23;;;0.40;;
53253;SDS011;39148;53.332;6.922;2022-07-01T04:20:58;1.17;;;0.25;;
53253;SDS011;39148;53.332;6.922;2022-07-01T04:23:43;0.98;;;0.32;;
53253;SDS011;39148;53.332;6.922;2022-07-01T04:26:09;0.88;;;0.30;;
53253;SDS011;39148;53.332;6.922;2022-07-01T04:28:34;1.02;;;0.40;;
53253;SDS011;39148;53.332;6.922;2022-07-01T04:31:00;0.73;;;0.25;;
53253;SDS011;39148;53.332;6.922;2022-07-01T04:33:26;2.35;;;0.50;;
53253;SDS011;39148;53.332;6.922;2022-07-01T04:35:52;1.42;;;0.38;;
53253;SDS011;39148;53.332;6.922;2022-07-01T04:38:17;1.52;;;0.60;;
53253;SDS011;39148;53.332;6.922;2022-07-01T04:40:43;1.10;;;0.50;;
53253;SDS011;39148;53.332;6.922;2022-07-01T04:43:29;2.40;;;0.22;;
53253;SDS011;39148;53.332;6.922;2022-07-01T04:45:54;1.08;;;0.30;;
53253;SDS011;39148;53.332;6.922;2022-07-01T04:48:20;2.20;;;0.47;;
53253;SDS011;39148;53.332;6.922;2022-07-01T04:50:46;2.35;;;0.40;;
53253;SDS011;39148;53.332;6.922;2022-07-01T04:53:14;1.85;;;0.50;;
53253;SDS011;39148;53.332;6.922;2022-07-01T04:55:40;1.63;;;0.52;;
53253;SDS011;39148;53.332;6.922;2022-07-01T04:58:06;1.60;;;0.40;;
53253;SDS011;39148;53.332;6.922;2022-07-01T05:00:31;2.47;;;0.40;;
53253;SDS011;39148;53.332;6.922;2022-07-01T05:02:57;1.45;;;0.40;;
53253;SDS011;39148;53.332;6.922;2022-07-01T05:05:23;1.58;;;0.43;;
53253;SDS011;39148;53.332;6.922;2022-07-01T05:07:49;0.88;;;0.30;;
53253;SDS011;39148;53.332;6.922;2022-07-01T05:10:14;2.53;;;0.50;;
53253;SDS011;39148;53.332;6.922;2022-07-01T05:12:40;1.52;;;0.30;;
53253;SDS011;39148;53.332;6.922;2022-07-01T05:15:06;1.15;;;0.40;;
53253;SDS011;39148;53.332;6.922;2022-07-01T05:17:32;1.63;;;0.30;;
53253;SDS011;39148;53.332;6.922;2022-07-01T05:20:17;1.05;;;0.40;;
53253;SDS011;39148;53.332;6.922;2022-07-01T05:23:01;0.77;;;0.30;;
53253;SDS011;39148;53.332;6.922;2022-07-01T05:25:27;1.83;;;0.57;;
53253;SDS011;39148;53.332;6.922;2022-07-01T05:27:53;2.05;;;0.47;;
53253;SDS011;39148;53.332;6.922;2022-07-01T05:30:22;1.90;;;0.50;;
53253;SDS011;39148;53.332;6.922;2022-07-01T05:32:47;3.38;;;0.60;;
53253;SDS011;39148;53.332;6.922;2022-07-01T05:35:13;3.53;;;0.52;;
53253;SDS011;39148;53.332;6.922;2022-07-01T05:37:39;1.95;;;0.50;;
53253;SDS011;39148;53.332;6.922;2022-07-01T05:40:06;1.90;;;0.57;;
53253;SDS011;39148;53.332;6.922;2022-07-01T05:42:32;1.42;;;0.60;;
53253;SDS011;39148;53.332;6.922;2022-07-01T05:44:58;1.88;;;0.60;;
53253;SDS011;39148;53.332;6.922;2022-07-01T05:47:24;2.50;;;0.63;;
53253;SDS011;39148;53.332;6.922;2022-07-01T05:49:49;1.92;;;0.70;;
53253;SDS011;39148;53.332;6.922;2022-07-01T05:52:15;1.88;;;0.52;;
53253;SDS011;39148;53.332;6.922;2022-07-01T05:54:41;2.85;;;0.70;;
53253;SDS011;39148;53.332;6.922;2022-07-01T05:57:06;1.35;;;0.50;;
53253;SDS011;39148;53.332;6.922;2022-07-01T05:59:32;2.15;;;0.65;;
53253;SDS011;39148;53.332;6.922;2022-07-01T06:01:58;1.40;;;0.52;;
53253;SDS011;39148;53.332;6.922;2022-07-01T06:04:24;2.40;;;0.70;;
53253;SDS011;39148;53.332;6.922;2022-07-01T06:06:49;2.83;;;0.60;;
53253;SDS011;39148;53.332;6.922;2022-07-01T06:09:15;2.65;;;0.80;;
53253;SDS011;39148;53.332;6.922;2022-07-01T06:11:41;1.92;;;0.60;;
53253;SDS011;39148;53.332;6.922;2022-07-01T06:14:06;3.40;;;1.27;;
53253;SDS011;39148;53.332;6.922;2022-07-01T06:16:32;3.78;;;1.08;;
53253;SDS011;39148;53.332;6.922;2022-07-01T06:18:58;3.05;;;1.00;;
53253;SDS011;39148;53.332;6.922;2022-07-01T06:21:24;4.13;;;1.17;;
53253;SDS011;39148;53.332;6.922;2022-07-01T06:23:49;3.05;;;1.30;;
53253;SDS011;39148;53.332;6.922;2022-07-01T06:26:15;2.85;;;1.10;;
53253;SDS011;39148;53.332;6.922;2022-07-01T06:28:41;4.25;;;1.42;;
53253;SDS011;39148;53.332;6.922;2022-07-01T06:31:07;2.67;;;1.20;;
53253;SDS011;39148;53.332;6.922;2022-07-01T06:33:33;3.88;;;1.50;;
53253;SDS011;39148;53.332;6.922;2022-07-01T06:35:58;3.83;;;1.55;;
53253;SDS011;39148;53.332;6.922;2022-07-01T06:38:24;4.75;;;1.65;;
53253;SDS011;39148;53.332;6.922;2022-07-01T06:40:50;3.25;;;1.65;;
53253;SDS011;39148;53.332;6.922;2022-07-01T06:43:35;3.47;;;1.67;;
53253;SDS011;39148;53.332;6.922;2022-07-01T06:46:00;3.50;;;1.45;;
53253;SDS011;39148;53.332;6.922;2022-07-01T06:48:27;4.60;;;1.52;;
53253;SDS011;39148;53.332;6.922;2022-07-01T06:50:52;3.78;;;1.70;;
53253;SDS011;39148;53.332;6.922;2022-07-01T06:53:18;5.47;;;2.00;;
53253;SDS011;39148;53.332;6.922;2022-07-01T06:55:44;4.18;;;1.90;;
53253;SDS011;39148;53.332;6.922;2022-07-01T06:58:09;4.70;;;2.50;;
53253;SDS011;39148;53.332;6.922;2022-07-01T07:00:35;3.45;;;1.95;;
53253;SDS011;39148;53.332;6.922;2022-07-01T07:03:01;4.95;;;2.22;;
53253;SDS011;39148;53.332;6.922;2022-07-01T07:05:27;3.88;;;2.22;;
53253;SDS011;39148;53.332;6.922;2022-07-01T07:07:55;4.38;;;2.20;;
53253;SDS011;39148;53.332;6.922;2022-07-01T07:10:21;4.50;;;2.60;;
53253;SDS011;39148;53.332;6.922;2022-07-01T07:12:47;4.60;;;2.70;;
53253;SDS011;39148;53.332;6.922;2022-07-01T07:15:13;5.53;;;2.55;;
53253;SDS011;39148;53.332;6.922;2022-07-01T07:17:39;4.20;;;2.25;;
53253;SDS011;39148;53.332;6.922;2022-07-01T07:20:05;5.75;;;2.75;;
53253;SDS011;39148;53.332;6.922;2022-07-01T07:22:31;5.78;;;2.83;;
53253;SDS011;39148;53.332;6.922;2022-07-01T07:24:57;4.68;;;2.75;;
53253;SDS011;39148;53.332;6.922;2022-07-01T07:27:22;4.53;;;2.63;;
53253;SDS011;39148;53.332;6.922;2022-07-01T07:29:48;4.60;;;2.70;;
53253;SDS011;39148;53.332;6.922;2022-07-01T07:32:14;5.63;;;2.80;;
53253;SDS011;39148;53.332;6.922;2022-07-01T07:34:39;4.90;;;2.95;;
53253;SDS011;39148;53.332;6.922;2022-07-01T07:37:05;5.18;;;2.70;;
53253;SDS011;39148;53.332;6.922;2022-07-01T07:39:31;3.72;;;2.10;;
53253;SDS011;39148;53.332;6.922;2022-07-01T07:41:57;4.93;;;2.45;;
53253;SDS011;39148;53.332;6.922;2022-07-01T07:44:23;6.05;;;2.50;;
53253;SDS011;39148;53.332;6.922;2022-07-01T07:46:48;5.60;;;2.75;;
53253;SDS011;39148;53.332;6.922;2022-07-01T07:49:14;5.13;;;2.60;;
53253;SDS011;39148;53.332;6.922;2022-07-01T07:51:40;4.47;;;2.10;;
53253;SDS011;39148;53.332;6.922;2022-07-01T07:54:06;8.73;;;2.70;;
53253;SDS011;39148;53.332;6.922;2022-07-01T07:56:31;5.45;;;2.70;;
53253;SDS011;39148;53.332;6.922;2022-07-01T07:58:57;6.05;;;2.63;;
53253;SDS011;39148;53.332;6.922;2022-07-01T08:01:23;5.70;;;2.55;;
53253;SDS011;39148;53.332;6.922;2022-07-01T08:03:49;4.80;;;2.30;;
53253;SDS011;39148;53.332;6.922;2022-07-01T08:06:15;4.85;;;2.50;;
53253;SDS011;39148;53.332;6.922;2022-07-01T08:08:41;6.32;;;2.65;;
53253;SDS011;39148;53.332;6.922;2022-07-01T08:11:06;6.00;;;2.65;;
53253;SDS011;39148;53.332;6.922;2022-07-01T08:13:32;5.18;;;2.50;;
53253;SDS011;39148;53.332;6.922;2022-07-01T08:15:58;6.53;;;3.10;;
53253;SDS011;39148;53.332;6.922;2022-07-01T08:18:25;5.30;;;2.60;;
53253;SDS011;39148;53.332;6.922;2022-07-01T08:20:51;6.00;;;3.08;;
53253;SDS011;39148;53.332;6.922;2022-07-01T08:23:20;5.75;;;3.22;;
53253;SDS011;39148;53.332;6.922;2022-07-01T08:25:47;5.28;;;2.90;;
53253;SDS011;39148;53.332;6.922;2022-07-01T08:28:14;5.72;;;2.85;;
53253;SDS011;39148;53.332;6.922;2022-07-01T08:30:40;5.53;;;2.85;;
53253;SDS011;39148;53.332;6.922;2022-07-01T08:33:06;5.30;;;2.90;;
53253;SDS011;39148;53.332;6.922;2022-07-01T08:35:31;5.50;;;2.95;;
53253;SDS011;39148;53.332;6.922;2022-07-01T08:37:57;6.15;;;3.05;;
53253;SDS011;39148;53.332;6.922;2022-07-01T08:40:27;5.72;;;2.80;;
53253;SDS011;39148;53.332;6.922;2022-07-01T08:42:55;6.30;;;3.08;;
53253;SDS011;39148;53.332;6.922;2022-07-01T08:45:23;5.40;;;3.10;;
53253;SDS011;39148;53.332;6.922;2022-07-01T08:47:54;6.93;;;3.42;;
53253;SDS011;39148;53.332;6.922;2022-07-01T08:50:25;4.60;;;2.90;;
53253;SDS011;39148;53.332;6.922;2022-07-01T08:52:51;4.70;;;2.78;;
53253;SDS011;39148;53.332;6.922;2022-07-01T08:55:18;5.55;;;2.83;;
53253;SDS011;39148;53.332;6.922;2022-07-01T08:57:44;7.13;;;3.22;;
53253;SDS011;39148;53.332;6.922;2022-07-01T09:00:11;4.25;;;2.67;;
53253;SDS011;39148;53.332;6.922;2022-07-01T09:02:50;4.55;;;2.85;;
53253;SDS011;39148;53.332;6.922;2022-07-01T09:05:17;4.17;;;2.53;;
53253;SDS011;39148;53.332;6.922;2022-07-01T09:07:43;5.32;;;2.90;;
53253;SDS011;39148;53.332;6.922;2022-07-01T09:10:13;5.30;;;2.55;;
53253;SDS011;39148;53.332;6.922;2022-07-01T09:12:44;5.28;;;2.50;;
53253;SDS011;39148;53.332;6.922;2022-07-01T09:15:20;5.43;;;2.67;;
53253;SDS011;39148;53.332;6.922;2022-07-01T09:17:56;6.03;;;2.60;;
53253;SDS011;39148;53.332;6.922;2022-07-01T09:20:40;6.55;;;2.50;;
53253;SDS011;39148;53.332;6.922;2022-07-01T09:25:47;6.20;;;2.90;;
53253;SDS011;39148;53.332;6.922;2022-07-01T09:28:16;4.10;;;2.40;;
53253;SDS011;39148;53.332;6.922;2022-07-01T09:30:49;5.73;;;2.60;;
53253;SDS011;39148;53.332;6.922;2022-07-01T09:33:17;7.78;;;2.75;;
53253;SDS011;39148;53.332;6.922;2022-07-01T09:35:44;4.85;;;2.40;;
53253;SDS011;39148;53.332;6.922;2022-07-01T09:38:13;4.35;;;2.20;;
53253;SDS011;39148;53.332;6.922;2022-07-01T09:45:50;4.32;;;2.28;;
53253;SDS011;39148;53.332;6.922;2022-07-01T09:48:21;6.40;;;2.65;;
53253;SDS011;39148;53.332;6.922;2022-07-01T09:50:48;5.32;;;2.63;;
53253;SDS011;39148;53.332;6.922;2022-07-01T09:53:14;4.60;;;2.20;;
53253;SDS011;39148;53.332;6.922;2022-07-01T09:55:40;6.25;;;2.08;;
53253;SDS011;39148;53.332;6.922;2022-07-01T09:58:06;5.15;;;2.28;;
53253;SDS011;39148;53.332;6.922;2022-07-01T10:00:32;6.07;;;2.20;;
53253;SDS011;39148;53.332;6.922;2022-07-01T10:03:00;6.30;;;1.88;;
53253;SDS011;39148;53.332;6.922;2022-07-01T10:05:27;4.20;;;1.60;;
53253;SDS011;39148;53.332;6.922;2022-07-01T10:10:51;5.38;;;1.70;;
53253;SDS011;39148;53.332;6.922;2022-07-01T10:13:40;5.88;;;1.75;;
53253;SDS011;39148;53.332;6.922;2022-07-01T10:16:07;3.10;;;1.33;;
53253;SDS011;39148;53.332;6.922;2022-07-01T10:18:34;3.05;;;1.40;;
53253;SDS011;39148;53.332;6.922;2022-07-01T10:21:00;4.72;;;1.50;;
53253;SDS011;39148;53.332;6.922;2022-07-01T10:23:29;4.38;;;1.50;;
53253;SDS011;39148;53.332;6.922;2022-07-01T10:26:06;3.80;;;1.10;;
53253;SDS011;39148;53.332;6.922;2022-07-01T10:31:07;3.05;;;1.10;;
53253;SDS011;39148;53.332;6.922;2022-07-01T10:33:44;2.38;;;1.08;;
53253;SDS011;39148;53.332;6.922;2022-07-01T10:36:16;2.78;;;1.10;;
53253;SDS011;39148;53.332;6.922;2022-07-01T10:44:02;2.78;;;1.00;;
53253;SDS011;39148;53.332;6.922;2022-07-01T10:49:13;4.53;;;1.33;;
53253;SDS011;39148;53.332;6.922;2022-07-01T10:59:44;2.90;;;1.08;;
53253;SDS011;39148;53.332;6.922;2022-07-01T11:02:25;2.65;;;0.70;;
53253;SDS011;39148;53.332;6.922;2022-07-01T11:04:56;3.75;;;1.27;;
53253;SDS011;39148;53.332;6.922;2022-07-01T11:07:24;4.82;;;1.30;;
53253;SDS011;39148;53.332;6.922;2022-07-01T11:09:51;3.47;;;1.00;;
53253;SDS011;39148;53.332;6.922;2022-07-01T11:12:17;3.50;;;1.20;;
53253;SDS011;39148;53.332;6.922;2022-07-01T11:14:44;3.92;;;1.20;;
53253;SDS011;39148;53.332;6.922;2022-07-01T11:17:10;4.20;;;1.17;;
53253;SDS011;39148;53.332;6.922;2022-07-01T11:19:36;2.60;;;1.05;;
53253;SDS011;39148;53.332;6.922;2022-07-01T11:22:02;3.25;;;1.25;;
53253;SDS011;39148;53.332;6.922;2022-07-01T11:24:30;4.13;;;1.17;;
53253;SDS011;39148;53.332;6.922;2022-07-01T11:27:08;3.15;;;0.90;;
53253;SDS011;39148;53.332;6.922;2022-07-01T11:29:33;3.63;;;1.05;;
53253;SDS011;39148;53.332;6.922;2022-07-01T11:32:00;2.90;;;1.00;;
53253;SDS011;39148;53.332;6.922;2022-07-01T11:34:27;2.58;;;0.80;;
53253;SDS011;39148;53.332;6.922;2022-07-01T11:36:53;2.72;;;0.85;;
53253;SDS011;39148;53.332;6.922;2022-07-01T11:39:38;4.57;;;1.30;;
53253;SDS011;39148;53.332;6.922;2022-07-01T11:42:07;3.13;;;0.90;;
53253;SDS011;39148;53.332;6.922;2022-07-01T11:47:07;3.97;;;1.13;;
53253;SDS011;39148;53.332;6.922;2022-07-01T11:49:39;2.58;;;0.90;;
53253;SDS011;39148;53.332;6.922;2022-07-01T11:52:10;2.63;;;0.90;;
53253;SDS011;39148;53.332;6.922;2022-07-01T11:54:39;2.35;;;0.90;;
53253;SDS011;39148;53.332;6.922;2022-07-01T11:57:12;4.10;;;0.73;;
53253;SDS011;39148;53.332;6.922;2022-07-01T11:59:40;3.78;;;1.20;;
53253;SDS011;39148;53.332;6.922;2022-07-01T12:02:07;4.78;;;1.10;;
53253;SDS011;39148;53.332;6.922;2022-07-01T12:04:34;4.35;;;1.20;;
53253;SDS011;39148;53.332;6.922;2022-07-01T12:06:59;3.03;;;0.90;;
53253;SDS011;39148;53.332;6.922;2022-07-01T12:09:26;4.25;;;1.30;;
53253;SDS011;39148;53.332;6.922;2022-07-01T12:11:52;3.75;;;0.82;;
53253;SDS011;39148;53.332;6.922;2022-07-01T12:14:19;3.90;;;0.88;;
53253;SDS011;39148;53.332;6.922;2022-07-01T12:16:46;3.50;;;0.95;;
53253;SDS011;39148;53.332;6.922;2022-07-01T12:19:12;4.03;;;0.80;;
53253;SDS011;39148;53.332;6.922;2022-07-01T12:21:51;3.55;;;0.88;;
53253;SDS011;39148;53.332;6.922;2022-07-01T12:24:18;1.83;;;0.43;;
53253;SDS011;39148;53.332;6.922;2022-07-01T12:29:28;2.35;;;0.57;;
53253;SDS011;39148;53.332;6.922;2022-07-01T12:32:05;3.17;;;1.02;;
53253;SDS011;39148;53.332;6.922;2022-07-01T12:37:15;2.55;;;0.60;;
53253;SDS011;39148;53.332;6.922;2022-07-01T12:40:24;3.42;;;0.50;;
53253;SDS011;39148;53.332;6.922;2022-07-01T12:42:37;2.00;;;0.43;;
53253;SDS011;39148;53.332;6.922;2022-07-01T12:45:09;2.03;;;0.45;;
53253;SDS011;39148;53.332;6.922;2022-07-01T12:47:40;2.35;;;0.60;;
53253;SDS011;39148;53.332;6.922;2022-07-01T12:50:09;2.58;;;0.50;;
53253;SDS011;39148;53.332;6.922;2022-07-01T12:52:36;2.70;;;0.50;;
53253;SDS011;39148;53.332;6.922;2022-07-01T12:56:03;3.92;;;0.57;;
53253;SDS011;39148;53.332;6.922;2022-07-01T12:57:59;3.55;;;0.68;;
53253;SDS011;39148;53.332;6.922;2022-07-01T13:00:26;1.92;;;0.35;;
53253;SDS011;39148;53.332;6.922;2022-07-01T13:02:54;1.70;;;0.60;;
53253;SDS011;39148;53.332;6.922;2022-07-01T13:05:21;3.90;;;0.50;;
53253;SDS011;39148;53.332;6.922;2022-07-01T13:07:47;5.13;;;0.68;;
53253;SDS011;39148;53.332;6.922;2022-07-01T13:10:14;2.00;;;0.50;;
53253;SDS011;39148;53.332;6.922;2022-07-01T13:12:40;2.60;;;0.50;;
53253;SDS011;39148;53.332;6.922;2022-07-01T13:15:07;0.85;;;0.20;;
53253;SDS011;39148;53.332;6.922;2022-07-01T13:17:33;2.78;;;0.57;;
53253;SDS011;39148;53.332;6.922;2022-07-01T13:19:58;3.40;;;0.55;;
53253;SDS011;39148;53.332;6.922;2022-07-01T13:22:24;3.65;;;0.73;;
53253;SDS011;39148;53.332;6.922;2022-07-01T13:24:50;4.32;;;0.60;;
53253;SDS011;39148;53.332;6.922;2022-07-01T13:27:15;3.75;;;0.70;;
53253;SDS011;39148;53.332;6.922;2022-07-01T13:29:42;2.65;;;0.60;;
53253;SDS011;39148;53.332;6.922;2022-07-01T13:32:07;3.80;;;0.68;;
53253;SDS011;39148;53.332;6.922;2022-07-01T13:34:33;1.15;;;0.40;;
53253;SDS011;39148;53.332;6.922;2022-07-01T13:36:59;2.63;;;0.80;;
53253;SDS011;39148;53.332;6.922;2022-07-01T13:39:25;2.47;;;0.40;;
53253;SDS011;39148;53.332;6.922;2022-07-01T13:41:51;2.97;;;0.40;;
53253;SDS011;39148;53.332;6.922;2022-07-01T13:44:17;3.65;;;0.60;;
53253;SDS011;39148;53.332;6.922;2022-07-01T13:46:42;2.70;;;0.40;;
53253;SDS011;39148;53.332;6.922;2022-07-01T13:49:08;3.58;;;0.80;;
53253;SDS011;39148;53.332;6.922;2022-07-01T13:51:34;1.60;;;0.40;;
53253;SDS011;39148;53.332;6.922;2022-07-01T13:54:00;2.03;;;0.50;;
53253;SDS011;39148;53.332;6.922;2022-07-01T13:56:26;3.10;;;0.40;;
53253;SDS011;39148;53.332;6.922;2022-07-01T13:58:52;3.10;;;0.68;;
53253;SDS011;39148;53.332;6.922;2022-07-01T14:01:18;1.30;;;0.30;;
53253;SDS011;39148;53.332;6.922;2022-07-01T14:03:45;2.78;;;0.47;;
53253;SDS011;39148;53.332;6.922;2022-07-01T14:06:11;2.33;;;0.60;;
53253;SDS011;39148;53.332;6.922;2022-07-01T14:08:37;2.90;;;0.40;;
53253;SDS011;39148;53.332;6.922;2022-07-01T14:11:03;2.03;;;0.43;;
53253;SDS011;39148;53.332;6.922;2022-07-01T14:13:29;2.80;;;0.47;;
53253;SDS011;39148;53.332;6.922;2022-07-01T14:15:55;2.67;;;0.40;;
53253;SDS011;39148;53.332;6.922;2022-07-01T14:18:20;1.27;;;0.30;;
53253;SDS011;39148;53.332;6.922;2022-07-01T14:20:46;2.70;;;0.88;;
53253;SDS011;39148;53.332;6.922;2022-07-01T14:23:12;1.92;;;0.30;;
53253;SDS011;39148;53.332;6.922;2022-07-01T14:25:38;2.17;;;0.40;;
53253;SDS011;39148;53.332;6.922;2022-07-01T14:28:05;1.02;;;0.20;;
53253;SDS011;39148;53.332;6.922;2022-07-01T14:30:32;4.32;;;0.45;;
53253;SDS011;39148;53.332;6.922;2022-07-01T14:32:58;1.83;;;0.40;;
53253;SDS011;39148;53.332;6.922;2022-07-01T14:35:26;2.60;;;0.40;;
53253;SDS011;39148;53.332;6.922;2022-07-01T14:37:52;2.72;;;0.50;;
53253;SDS011;39148;53.332;6.922;2022-07-01T14:40:18;2.17;;;0.40;;
53253;SDS011;39148;53.332;6.922;2022-07-01T14:42:44;3.08;;;0.70;;
53253;SDS011;39148;53.332;6.922;2022-07-01T14:45:11;2.22;;;0.40;;
53253;SDS011;39148;53.332;6.922;2022-07-01T14:47:39;1.70;;;0.40;;
53253;SDS011;39148;53.332;6.922;2022-07-01T14:50:05;2.83;;;0.57;;
53253;SDS011;39148;53.332;6.922;2022-07-01T14:52:31;2.20;;;0.55;;
53253;SDS011;39148;53.332;6.922;2022-07-01T14:54:57;1.55;;;0.50;;
53253;SDS011;39148;53.332;6.922;2022-07-01T14:57:23;2.97;;;0.47;;
53253;SDS011;39148;53.332;6.922;2022-07-01T14:59:49;2.40;;;0.30;;
53253;SDS011;39148;53.332;6.922;2022-07-01T15:02:15;2.35;;;0.50;;
53253;SDS011;39148;53.332;6.922;2022-07-01T15:04:41;3.22;;;0.40;;
53253;SDS011;39148;53.332;6.922;2022-07-01T15:07:07;5.78;;;0.77;;
53253;SDS011;39148;53.332;6.922;2022-07-01T15:09:33;2.95;;;0.75;;
53253;SDS011;39148;53.332;6.922;2022-07-01T15:11:59;4.20;;;0.43;;
53253;SDS011;39148;53.332;6.922;2022-07-01T15:14:24;1.52;;;0.35;;
53253;SDS011;39148;53.332;6.922;2022-07-01T15:16:51;2.75;;;0.40;;
53253;SDS011;39148;53.332;6.922;2022-07-01T15:19:17;4.47;;;0.57;;
53253;SDS011;39148;53.332;6.922;2022-07-01T15:21:43;3.05;;;0.32;;
53253;SDS011;39148;53.332;6.922;2022-07-01T15:24:08;1.92;;;0.30;;
53253;SDS011;39148;53.332;6.922;2022-07-01T15:26:34;1.73;;;0.60;;